Time;durP1;ratioP1;P1;durP2;ratioP2;P2;SDS_P1;SDS_P2;PMS_P1;PMS_P2;Temp;Humidity;BMP_temperature;BMP_pressure;BME280_temperature;BME280_humidity;BME280_pressure;Samples;Min_cycle;Max_cycle;Signal;HPM_P1;HPM_P2
2023/03/22 00:01:21;;;;;;;13.43;2.35;;;10.70;99.90;;;;;;4963250;28;20508;-74
2023/03/22 00:03:48;;;;;;;12.27;2.05;;;10.80;99.90;;;;;;4959801;28;20038;-74
2023/03/22 00:06:15;;;;;;;8.40;1.42;;;10.80;99.90;;;;;;4975633;28;20112;-73
2023/03/22 00:08:41;;;;;;;12.38;1.70;;;10.80;99.90;;;;;;4959322;28;20042;-74
2023/03/22 00:11:07;;;;;;;12.30;1.60;;;10.80;99.90;;;;;;4978220;28;20034;-74
2023/03/22 00:13:35;;;;;;;10.43;1.52;;;10.70;99.90;;;;;;4964002;28;20482;-74
2023/03/22 00:16:01;;;;;;;18.17;1.75;;;10.70;99.90;;;;;;4963889;28;20049;-74
2023/03/22 00:18:28;;;;;;;12.25;1.77;;;10.70;99.90;;;;;;4963716;28;20190;-74
2023/03/22 00:20:55;;;;;;;11.50;1.40;;;10.80;99.90;;;;;;4959534;28;20129;-74
2023/03/22 00:23:22;;;;;;;11.73;1.42;;;10.80;99.90;;;;;;4961516;28;20232;-73
2023/03/22 00:25:48;;;;;;;15.52;2.00;;;10.70;99.90;;;;;;4980278;28;20038;-74
2023/03/22 00:28:15;;;;;;;15.70;2.10;;;10.70;99.90;;;;;;4962628;28;20513;-74
2023/03/22 00:30:41;;;;;;;13.27;1.73;;;10.70;99.90;;;;;;4976431;28;20034;-74
2023/03/22 00:33:07;;;;;;;14.27;2.00;;;10.70;99.90;;;;;;4947079;28;20049;-73
2023/03/22 00:35:33;;;;;;;16.38;1.55;;;10.70;99.90;;;;;;4959230;28;20090;-74
2023/03/22 00:38:12;;;;;;;13.93;1.92;;;10.60;99.90;;;;;;4974917;28;20069;-73
2023/03/22 00:40:38;;;;;;;18.33;2.17;;;10.60;99.90;;;;;;4980650;28;20450;-74
2023/03/22 00:43:04;;;;;;;9.32;1.45;;;10.60;99.90;;;;;;4981248;28;20043;-74
2023/03/22 00:45:30;;;;;;;16.35;2.92;;;10.60;99.90;;;;;;4981718;28;20133;-74
2023/03/22 00:47:55;;;;;;;15.07;1.85;;;10.70;99.90;;;;;;4963127;28;20061;-74
2023/03/22 00:50:21;;;;;;;13.10;1.98;;;10.70;99.90;;;;;;4979930;28;21429;-74
2023/03/22 00:52:46;;;;;;;11.60;1.95;;;10.70;99.90;;;;;;4978748;28;20086;-74
2023/03/22 00:55:12;;;;;;;22.35;1.98;;;10.60;99.90;;;;;;4962664;28;20546;-74
2023/03/22 00:57:38;;;;;;;12.05;1.73;;;10.70;99.90;;;;;;4955211;28;20044;-74
2023/03/22 01:00:14;;;;;;;9.93;1.55;;;10.70;99.90;;;;;;4962926;28;20036;-73
2023/03/22 01:02:41;;;;;;;13.00;1.85;;;10.70;99.90;;;;;;4965138;28;20079;-74
2023/03/22 01:05:08;;;;;;;21.55;2.42;;;10.60;99.90;;;;;;4981058;28;20084;-74
2023/03/22 01:07:37;;;;;;;15.70;1.85;;;10.70;99.90;;;;;;4979408;28;20037;-74
2023/03/22 01:10:03;;;;;;;14.40;2.03;;;10.70;99.90;;;;;;4959928;28;20041;-74
2023/03/22 01:12:29;;;;;;;17.17;1.90;;;10.70;99.90;;;;;;4961432;28;21803;-74
2023/03/22 01:14:55;;;;;;;20.15;2.15;;;10.70;99.90;;;;;;4981283;28;20023;-74
2023/03/22 01:17:21;;;;;;;15.15;2.25;;;10.70;99.90;;;;;;4962682;28;20120;-74
2023/03/22 01:19:46;;;;;;;12.80;1.60;;;10.70;99.90;;;;;;4980367;28;20448;-74
2023/03/22 01:22:12;;;;;;;17.95;2.42;;;10.60;99.90;;;;;;4978373;28;20151;-73
2023/03/22 01:24:38;;;;;;;21.88;2.50;;;10.60;99.90;;;;;;4978872;28;20058;-74
2023/03/22 01:27:03;;;;;;;20.25;2.50;;;10.60;99.90;;;;;;4977806;28;20573;-74
2023/03/22 01:29:30;;;;;;;18.42;2.83;;;10.50;99.90;;;;;;4975939;28;20105;-74
2023/03/22 01:31:56;;;;;;;19.10;2.40;;;10.50;99.90;;;;;;4962125;28;20045;-74
2023/03/22 01:34:21;;;;;;;14.82;2.63;;;10.50;99.90;;;;;;4979478;28;20147;-74
2023/03/22 01:36:49;;;;;;;17.05;3.00;;;10.50;99.90;;;;;;4977258;28;20256;-74
2023/03/22 01:39:15;;;;;;;18.70;2.38;;;10.40;99.90;;;;;;4975429;28;20018;-74
2023/03/22 01:41:41;;;;;;;16.48;2.53;;;10.40;99.90;;;;;;4948643;28;20035;-74
2023/03/22 01:44:11;;;;;;;21.52;2.85;;;10.40;99.90;;;;;;4970606;28;20049;-74
2023/03/22 01:46:40;;;;;;;16.95;2.67;;;10.40;99.90;;;;;;4969949;28;20520;-74
2023/03/22 01:49:11;;;;;;;21.92;2.85;;;10.50;99.90;;;;;;4963581;28;20117;-75
2023/03/22 01:51:38;;;;;;;17.53;2.50;;;10.40;99.90;;;;;;4960102;28;20034;-74
2023/03/22 01:54:11;;;;;;;18.27;2.28;;;10.50;99.90;;;;;;4977923;28;20037;-74
2023/03/22 01:56:40;;;;;;;13.30;2.00;;;10.50;99.90;;;;;;4977942;28;20442;-73
2023/03/22 01:59:08;;;;;;;20.88;2.67;;;10.50;99.90;;;;;;4959327;28;20148;-74
2023/03/22 02:01:35;;;;;;;20.48;2.00;;;10.50;99.90;;;;;;4962876;28;20101;-73
2023/03/22 02:04:06;;;;;;;25.00;3.08;;;10.50;99.90;;;;;;4979640;28;20618;-73
2023/03/22 02:06:37;;;;;;;16.42;2.20;;;10.50;99.90;;;;;;4961999;28;20034;-74
2023/03/22 02:09:08;;;;;;;17.45;2.42;;;10.50;99.90;;;;;;4976117;28;20084;-73
2023/03/22 02:11:40;;;;;;;20.83;2.67;;;10.50;99.90;;;;;;4979691;28;20097;-74
2023/03/22 02:14:40;;;;;;;12.85;2.10;;;10.50;99.90;;;;;;4979407;28;20071;-74
2023/03/22 02:17:37;;;;;;;20.60;2.13;;;10.40;99.90;;;;;;4979174;28;20034;-73
2023/03/22 02:20:09;;;;;;;21.65;3.53;;;10.30;99.90;;;;;;4977491;28;20109;-74
2023/03/22 02:22:48;;;;;;;15.68;2.30;;;10.30;99.90;;;;;;4978976;28;20045;-74
2023/03/22 02:25:41;;;;;;;18.30;2.20;;;10.20;99.90;;;;;;4977651;28;20458;-73
2023/03/22 02:28:13;;;;;;;20.90;2.70;;;10.10;99.90;;;;;;4959155;28;20030;-74
2023/03/22 02:31:03;;;;;;;17.63;2.63;;;10.00;99.90;;;;;;4986164;28;20548;-74
2023/03/22 02:34:05;;;;;;;36.20;3.20;;;10.00;99.90;;;;;;4955726;28;20411;-74
2023/03/22 02:37:09;;;;;;;16.73;2.08;;;10.00;99.90;;;;;;4963909;28;20267;-73
2023/03/22 02:39:54;;;;;;;23.45;2.30;;;9.90;99.90;;;;;;4961475;28;20526;-73
2023/03/22 02:42:37;;;;;;;25.30;2.70;;;9.90;99.90;;;;;;4975529;28;20101;-74
2023/03/22 02:45:33;;;;;;;16.90;2.20;;;9.90;99.90;;;;;;4956523;28;20062;-74
2023/03/22 02:48:11;;;;;;;16.55;1.95;;;9.90;99.90;;;;;;4964833;28;20030;-74
2023/03/22 02:50:47;;;;;;;23.75;2.50;;;9.90;99.90;;;;;;4980761;28;20080;-74
2023/03/22 02:53:21;;;;;;;24.42;3.85;;;9.80;99.90;;;;;;4981293;28;20066;-74
2023/03/22 02:56:08;;;;;;;22.45;2.92;;;9.80;99.90;;;;;;4983587;28;20030;-74
2023/03/22 02:58:44;;;;;;;22.48;2.88;;;9.80;99.90;;;;;;4972932;28;20057;-74
2023/03/22 03:01:22;;;;;;;24.15;3.28;;;9.80;99.90;;;;;;4982485;28;20438;-74
2023/03/22 03:03:51;;;;;;;29.27;4.20;;;9.80;99.90;;;;;;4979736;28;20042;-74
2023/03/22 03:06:20;;;;;;;17.02;2.85;;;9.80;99.90;;;;;;4980522;28;20088;-73
2023/03/22 03:08:52;;;;;;;28.15;3.30;;;9.80;99.90;;;;;;4976326;28;20035;-73
2023/03/22 03:11:19;;;;;;;25.30;3.08;;;9.80;99.90;;;;;;4977940;28;20269;-73
2023/03/22 03:13:48;;;;;;;25.15;2.90;;;9.70;99.90;;;;;;4980268;28;20034;-73
2023/03/22 03:16:18;;;;;;;23.88;2.88;;;9.70;99.90;;;;;;4981623;28;20030;-73
2023/03/22 03:18:57;;;;;;;21.80;2.92;;;9.70;99.90;;;;;;4963048;28;20105;-74
2023/03/22 03:21:41;;;;;;;31.80;3.45;;;9.70;99.90;;;;;;4975339;28;20031;-74
2023/03/22 03:24:26;;;;;;;21.70;2.53;;;9.70;99.90;;;;;;4946367;28;20454;-74
2023/03/22 03:27:13;;;;;;;28.67;3.17;;;9.70;99.90;;;;;;4942698;28;20035;-73
2023/03/22 03:30:05;;;;;;;32.78;3.42;;;9.70;99.90;;;;;;4959718;28;20046;-74
2023/03/22 03:32:51;;;;;;;30.08;3.65;;;9.70;99.90;;;;;;4933025;28;20238;-73
2023/03/22 03:35:21;;;;;;;26.77;2.67;;;9.80;99.90;;;;;;4961452;28;20035;-73
2023/03/22 03:38:00;;;;;;;25.38;3.30;;;9.70;99.90;;;;;;4960887;28;20031;-73
2023/03/22 03:40:28;;;;;;;29.48;3.08;;;9.70;99.90;;;;;;4944346;28;20069;-74
2023/03/22 03:42:56;;;;;;;28.00;3.65;;;9.70;99.90;;;;;;4962122;28;20474;-74
2023/03/22 03:45:22;;;;;;;29.63;3.92;;;9.70;99.90;;;;;;4955054;28;20030;-74
2023/03/22 03:47:55;;;;;;;23.58;3.15;;;9.70;99.90;;;;;;4961907;28;20391;-74
2023/03/22 03:50:22;;;;;;;19.92;3.50;;;9.70;99.90;;;;;;4952509;28;20031;-73
2023/03/22 03:52:48;;;;;;;13.35;2.72;;;9.70;99.90;;;;;;4960454;28;20064;-73
2023/03/22 03:55:14;;;;;;;25.23;3.95;;;9.70;99.90;;;;;;4959629;28;20058;-73
2023/03/22 03:57:40;;;;;;;20.20;3.40;;;9.70;99.90;;;;;;4944198;28;20474;-74
2023/03/22 04:00:06;;;;;;;24.63;3.72;;;9.70;99.90;;;;;;4960042;28;20062;-73
2023/03/22 04:02:32;;;;;;;26.40;2.95;;;9.70;99.90;;;;;;4957171;28;20099;-73
2023/03/22 04:04:57;;;;;;;21.08;2.67;;;9.60;99.90;;;;;;4963252;28;20027;-73
2023/03/22 04:07:23;;;;;;;19.90;3.35;;;9.70;99.90;;;;;;4960952;28;20547;-73
2023/03/22 04:09:49;;;;;;;25.65;4.68;;;9.70;99.90;;;;;;4962067;28;20521;-73
2023/03/22 04:12:14;;;;;;;25.00;2.75;;;9.60;99.90;;;;;;4960558;28;20069;-74
2023/03/22 04:14:40;;;;;;;23.40;3.40;;;9.70;99.90;;;;;;4960149;28;20520;-73
2023/03/22 04:17:06;;;;;;;34.63;3.13;;;9.70;99.90;;;;;;4956937;28;20058;-73
2023/03/22 04:19:32;;;;;;;21.83;2.97;;;9.60;99.90;;;;;;4937433;28;20398;-74
2023/03/22 04:21:59;;;;;;;18.15;2.70;;;9.60;99.90;;;;;;4956774;28;20491;-73
2023/03/22 04:24:24;;;;;;;26.63;3.42;;;9.60;99.90;;;;;;4973488;28;20393;-74
2023/03/22 04:26:51;;;;;;;22.85;3.05;;;9.70;99.90;;;;;;4980370;28;20034;-74
2023/03/22 04:29:17;;;;;;;30.63;3.47;;;9.60;99.90;;;;;;4978312;28;20233;-74
2023/03/22 04:31:43;;;;;;;21.55;3.30;;;9.60;99.90;;;;;;4980934;28;20034;-74
2023/03/22 04:34:08;;;;;;;21.67;3.40;;;9.60;99.90;;;;;;4980890;28;20062;-73
2023/03/22 04:36:38;;;;;;;21.73;3.70;;;9.60;99.90;;;;;;4959743;28;20398;-74
2023/03/22 04:39:09;;;;;;;24.50;3.03;;;9.60;99.90;;;;;;4977037;28;20034;-73
2023/03/22 04:41:35;;;;;;;25.65;3.53;;;9.60;99.90;;;;;;4971009;28;20042;-73
2023/03/22 04:44:02;;;;;;;25.70;3.25;;;9.60;99.90;;;;;;4955693;28;20057;-73
2023/03/22 04:46:29;;;;;;;26.13;3.63;;;9.60;99.90;;;;;;4981098;28;20041;-73
2023/03/22 04:48:55;;;;;;;24.02;3.40;;;9.60;99.90;;;;;;4960455;28;20305;-73
2023/03/22 04:51:21;;;;;;;20.60;3.10;;;9.60;99.90;;;;;;4963328;28;20398;-74
2023/03/22 04:53:46;;;;;;;31.45;3.65;;;9.70;99.90;;;;;;4951596;28;20282;-73
2023/03/22 04:56:13;;;;;;;20.50;3.35;;;9.70;99.90;;;;;;4974483;28;20034;-74
2023/03/22 04:58:41;;;;;;;27.40;3.83;;;9.70;99.90;;;;;;4958356;28;20037;-73
2023/03/22 05:01:08;;;;;;;29.77;4.13;;;9.60;99.90;;;;;;4978339;28;20034;-73
2023/03/22 05:03:35;;;;;;;32.05;3.72;;;9.60;99.90;;;;;;4979269;28;20161;-73
2023/03/22 05:06:03;;;;;;;29.63;4.50;;;9.60;99.90;;;;;;4980394;28;20112;-73
2023/03/22 05:08:30;;;;;;;29.40;3.72;;;9.70;99.90;;;;;;4961363;28;20129;-73
2023/03/22 05:10:57;;;;;;;31.27;3.22;;;9.60;99.90;;;;;;4955007;28;20026;-74
2023/03/22 05:13:25;;;;;;;25.83;3.45;;;9.70;99.90;;;;;;4979752;28;20512;-73
2023/03/22 05:15:51;;;;;;;25.10;3.70;;;9.70;99.90;;;;;;4980111;28;20133;-73
2023/03/22 05:18:19;;;;;;;24.33;3.83;;;9.60;99.90;;;;;;4980203;28;20077;-74
2023/03/22 05:20:46;;;;;;;24.27;3.22;;;9.60;99.90;;;;;;4967179;28;20034;-73
2023/03/22 05:23:13;;;;;;;26.20;3.63;;;9.70;99.90;;;;;;4980330;28;20445;-73
2023/03/22 05:25:43;;;;;;;29.75;3.80;;;9.70;99.90;;;;;;4976506;28;20117;-73
2023/03/22 05:28:09;;;;;;;27.15;3.97;;;9.70;99.90;;;;;;4965519;28;20065;-73
2023/03/22 05:30:35;;;;;;;28.40;4.30;;;9.70;99.90;;;;;;4974387;28;20057;-72
2023/03/22 05:33:02;;;;;;;32.33;3.95;;;9.70;99.90;;;;;;4981695;28;20038;-74
2023/03/22 05:35:29;;;;;;;20.77;3.05;;;9.70;99.90;;;;;;4980435;28;20034;-73
2023/03/22 05:37:55;;;;;;;26.98;4.80;;;9.60;99.90;;;;;;4979361;28;20058;-73
2023/03/22 05:40:22;;;;;;;27.33;3.15;;;9.70;99.90;;;;;;4975883;28;20296;-73
2023/03/22 05:42:47;;;;;;;29.95;3.72;;;9.60;99.90;;;;;;4974447;28;20062;-74
2023/03/22 05:45:13;;;;;;;17.65;2.60;;;9.70;99.90;;;;;;4975377;28;20084;-73
2023/03/22 05:47:39;;;;;;;28.40;4.28;;;9.60;99.90;;;;;;4961362;28;20030;-73
2023/03/22 05:50:07;;;;;;;24.40;2.95;;;9.70;99.90;;;;;;4979210;28;20026;-73
2023/03/22 05:52:33;;;;;;;29.15;3.90;;;9.70;99.90;;;;;;4968689;28;20510;-73
2023/03/22 05:54:58;;;;;;;26.40;2.58;;;9.70;99.90;;;;;;4959552;28;20109;-73
2023/03/22 05:57:25;;;;;;;24.55;2.97;;;9.70;99.90;;;;;;4960897;28;20031;-73
2023/03/22 05:59:52;;;;;;;26.17;3.03;;;9.70;99.90;;;;;;4967295;28;20511;-73
2023/03/22 06:02:19;;;;;;;19.05;2.75;;;9.60;99.90;;;;;;4964280;28;20031;-74
2023/03/22 06:04:45;;;;;;;24.75;2.83;;;9.60;99.90;;;;;;4964612;28;20026;-72
2023/03/22 06:07:11;;;;;;;31.38;3.15;;;9.60;99.90;;;;;;4976699;28;20109;-73
2023/03/22 06:09:37;;;;;;;24.30;3.03;;;9.70;99.90;;;;;;4978392;28;20046;-73
2023/03/22 06:12:04;;;;;;;17.88;2.92;;;9.70;99.90;;;;;;4977143;28;20078;-73
2023/03/22 06:14:30;;;;;;;25.85;3.28;;;9.70;99.90;;;;;;4980929;28;20038;-73
2023/03/22 06:16:55;;;;;;;26.05;2.97;;;9.70;99.90;;;;;;4963197;28;20418;-73
2023/03/22 06:19:21;;;;;;;22.35;2.85;;;9.70;99.90;;;;;;4968037;28;20113;-74
2023/03/22 06:21:47;;;;;;;24.42;3.05;;;9.70;99.90;;;;;;4961520;28;20119;-73
2023/03/22 06:24:12;;;;;;;22.75;3.22;;;9.70;99.90;;;;;;4961276;28;20098;-73
2023/03/22 06:26:38;;;;;;;14.25;3.05;;;9.70;99.90;;;;;;4978968;28;20030;-74
2023/03/22 06:29:03;;;;;;;27.92;3.25;;;9.70;99.90;;;;;;4977094;28;20038;-73
2023/03/22 06:31:29;;;;;;;22.00;2.90;;;9.70;99.90;;;;;;4971581;28;20062;-74
2023/03/22 06:33:55;;;;;;;19.67;2.40;;;9.70;99.90;;;;;;4961471;28;20059;-74
2023/03/22 06:36:21;;;;;;;18.98;3.08;;;9.80;99.90;;;;;;4972394;28;20049;-72
2023/03/22 06:38:46;;;;;;;25.80;2.53;;;9.80;99.90;;;;;;4977399;28;20038;-74
2023/03/22 06:41:12;;;;;;;22.48;3.20;;;9.80;99.90;;;;;;4960111;28;20037;-73
2023/03/22 06:43:37;;;;;;;26.35;2.75;;;9.80;99.90;;;;;;4955526;28;20046;-73
2023/03/22 06:46:03;;;;;;;18.85;2.55;;;9.80;99.90;;;;;;4973513;28;20030;-73
2023/03/22 06:48:29;;;;;;;20.70;2.78;;;9.80;99.90;;;;;;4962776;28;20041;-73
2023/03/22 06:50:54;;;;;;;25.23;2.70;;;9.90;99.90;;;;;;4979660;28;20113;-73
2023/03/22 06:53:20;;;;;;;27.48;3.15;;;10.00;99.90;;;;;;4978448;28;20101;-73
2023/03/22 06:55:45;;;;;;;28.13;3.83;;;10.00;99.90;;;;;;4978807;28;20069;-73
2023/03/22 06:58:11;;;;;;;21.77;2.58;;;10.00;99.90;;;;;;4979130;28;20027;-73
2023/03/22 07:00:37;;;;;;;23.17;3.08;;;10.10;99.90;;;;;;4978304;28;20406;-74
2023/03/22 07:03:03;;;;;;;18.23;2.33;;;10.10;99.90;;;;;;4980685;28;20362;-73
2023/03/22 07:05:29;;;;;;;20.83;2.67;;;10.10;99.90;;;;;;4962674;28;20040;-74
2023/03/22 07:07:55;;;;;;;16.88;2.20;;;10.00;99.90;;;;;;4971188;28;20474;-73
2023/03/22 07:10:20;;;;;;;18.48;2.38;;;10.00;99.90;;;;;;4965804;28;20027;-73
2023/03/22 07:12:46;;;;;;;21.50;2.67;;;10.00;99.90;;;;;;4956449;28;20478;-74
2023/03/22 07:15:11;;;;;;;13.55;2.30;;;10.10;99.90;;;;;;4961200;28;20045;-73
2023/03/22 07:17:37;;;;;;;22.38;2.70;;;10.10;99.90;;;;;;4955894;28;20466;-73
2023/03/22 07:20:03;;;;;;;24.38;3.30;;;10.10;99.90;;;;;;4972170;28;20026;-73
2023/03/22 07:22:29;;;;;;;23.58;2.50;;;10.10;99.90;;;;;;4979057;28;20506;-73
2023/03/22 07:24:55;;;;;;;31.17;3.58;;;10.10;99.90;;;;;;4965202;28;20082;-73
2023/03/22 07:27:20;;;;;;;21.98;2.90;;;10.20;99.90;;;;;;4962140;28;20101;-75
2023/03/22 07:29:46;;;;;;;27.40;3.60;;;10.20;99.90;;;;;;4941168;28;20154;-74
2023/03/22 07:32:11;;;;;;;23.92;2.72;;;10.20;99.90;;;;;;4940360;28;20419;-74
2023/03/22 07:34:37;;;;;;;22.40;3.13;;;10.20;99.90;;;;;;4939387;28;20095;-74
2023/03/22 07:37:03;;;;;;;22.08;3.35;;;10.20;99.90;;;;;;4936205;28;20071;-74
2023/03/22 07:39:30;;;;;;;31.67;4.28;;;10.20;99.90;;;;;;4955066;28;20031;-74
2023/03/22 07:41:55;;;;;;;19.58;3.30;;;10.20;99.90;;;;;;4963798;28;20455;-74
2023/03/22 07:44:22;;;;;;;19.92;3.15;;;10.20;99.90;;;;;;4930938;28;20067;-74
2023/03/22 07:46:49;;;;;;;27.77;2.55;;;10.20;99.90;;;;;;4944651;28;20166;-74
2023/03/22 07:49:16;;;;;;;27.88;3.50;;;10.20;99.90;;;;;;4945234;28;20058;-74
2023/03/22 07:51:42;;;;;;;22.65;2.97;;;10.30;99.90;;;;;;4940245;28;20073;-74
2023/03/22 07:54:07;;;;;;;19.02;2.53;;;10.30;99.90;;;;;;4962189;28;20483;-74
2023/03/22 07:56:33;;;;;;;22.05;2.97;;;10.40;99.90;;;;;;4955530;28;20073;-75
2023/03/22 07:58:59;;;;;;;28.80;3.38;;;10.40;99.90;;;;;;4943301;28;20561;-74
2023/03/22 08:01:25;;;;;;;25.02;3.05;;;10.40;99.90;;;;;;4942742;28;20105;-73
2023/03/22 08:03:51;;;;;;;25.40;2.88;;;10.40;99.90;;;;;;4956206;28;20145;-74
2023/03/22 08:06:20;;;;;;;26.15;3.22;;;10.40;99.90;;;;;;4956451;28;20066;-74
2023/03/22 08:08:46;;;;;;;18.50;2.55;;;10.40;99.90;;;;;;4957126;28;20247;-75
2023/03/22 08:11:11;;;;;;;30.00;3.58;;;10.50;99.90;;;;;;4939026;28;20403;-74
2023/03/22 08:13:38;;;;;;;16.10;2.42;;;10.50;99.90;;;;;;4953609;28;20093;-74
2023/03/22 08:16:04;;;;;;;23.63;2.40;;;10.40;99.90;;;;;;4959634;28;20022;-75
2023/03/22 08:18:31;;;;;;;31.95;2.95;;;10.50;99.90;;;;;;4961977;28;20447;-77
2023/03/22 08:20:58;;;;;;;19.27;2.40;;;10.50;99.90;;;;;;4944166;28;20061;-75
2023/03/22 08:23:25;;;;;;;20.85;2.80;;;10.50;99.90;;;;;;4967730;28;20046;-74
2023/03/22 08:25:51;;;;;;;18.55;2.40;;;10.60;99.90;;;;;;4979622;28;20088;-74
2023/03/22 08:28:17;;;;;;;20.02;3.00;;;10.60;99.90;;;;;;4981338;28;20042;-74
2023/03/22 08:30:45;;;;;;;28.25;3.72;;;10.60;99.90;;;;;;4954799;28;20038;-75
2023/03/22 08:33:11;;;;;;;20.38;2.92;;;10.70;99.90;;;;;;4954236;28;20340;-75
2023/03/22 08:35:37;;;;;;;18.90;2.55;;;10.80;99.90;;;;;;4968161;28;20092;-74
2023/03/22 08:38:02;;;;;;;25.15;2.55;;;10.80;99.90;;;;;;4982693;28;20113;-74
2023/03/22 08:40:28;;;;;;;18.00;2.28;;;10.80;99.90;;;;;;4982175;28;20034;-74
2023/03/22 08:42:54;;;;;;;23.48;3.40;;;10.80;99.90;;;;;;4977095;28;20030;-74
2023/03/22 08:45:20;;;;;;;17.38;2.72;;;10.70;99.90;;;;;;4979437;28;20569;-74
2023/03/22 08:47:45;;;;;;;24.65;2.53;;;10.80;99.90;;;;;;4965391;28;20105;-74
2023/03/22 08:50:11;;;;;;;22.15;2.17;;;10.80;99.90;;;;;;4983575;28;20102;-74
2023/03/22 08:52:37;;;;;;;9.40;2.03;;;10.80;99.90;;;;;;4984378;28;20026;-75
2023/03/22 08:55:05;;;;;;;20.02;2.55;;;10.80;99.90;;;;;;4980497;28;20117;-74
2023/03/22 08:57:30;;;;;;;16.50;2.00;;;10.70;99.90;;;;;;4976071;28;20393;-73
2023/03/22 08:59:56;;;;;;;18.80;2.13;;;10.70;99.90;;;;;;4972210;28;20112;-74
2023/03/22 09:02:23;;;;;;;13.68;2.17;;;10.80;99.90;;;;;;4965481;28;20069;-73
2023/03/22 09:04:49;;;;;;;19.85;2.70;;;10.90;99.90;;;;;;4970536;28;20049;-74
2023/03/22 09:07:16;;;;;;;26.63;2.67;;;10.90;99.90;;;;;;4946140;28;20485;-74
2023/03/22 09:09:42;;;;;;;20.80;3.13;;;11.00;99.90;;;;;;4946811;28;20034;-74
2023/03/22 09:12:08;;;;;;;21.10;2.60;;;11.20;99.90;;;;;;4967147;28;20109;-78
2023/03/22 09:14:34;;;;;;;15.20;2.05;;;11.20;99.90;;;;;;4972261;28;20038;-73
2023/03/22 09:17:00;;;;;;;13.60;2.00;;;11.20;99.90;;;;;;4958459;28;20149;-76
2023/03/22 09:19:27;;;;;;;19.42;2.10;;;11.20;99.90;;;;;;4953810;28;20038;-74
2023/03/22 09:21:52;;;;;;;14.40;1.75;;;11.20;99.90;;;;;;4969933;28;20030;-74
2023/03/22 09:24:19;;;;;;;12.13;2.05;;;11.20;99.90;;;;;;4952858;28;20056;-74
2023/03/22 09:26:45;;;;;;;17.10;2.00;;;11.30;99.90;;;;;;4966083;28;20457;-74
2023/03/22 09:29:12;;;;;;;13.07;1.88;;;11.20;99.90;;;;;;4951135;28;20034;-75
2023/03/22 09:31:38;;;;;;;12.25;2.20;;;11.20;99.90;;;;;;4973384;28;20100;-74
2023/03/22 09:34:04;;;;;;;12.52;1.65;;;11.20;99.90;;;;;;4965703;28;20233;-74
2023/03/22 09:36:31;;;;;;;11.65;1.83;;;11.10;99.90;;;;;;4966147;28;20027;-74
2023/03/22 09:38:58;;;;;;;11.13;1.70;;;11.10;99.90;;;;;;4971371;28;20077;-72
2023/03/22 09:41:39;;;;;;;12.02;1.90;;;11.20;99.90;;;;;;4950671;28;20141;-76
2023/03/22 09:44:11;;;;;;;7.53;1.27;;;11.20;99.90;;;;;;4946905;28;20093;-75
2023/03/22 09:46:40;;;;;;;14.90;1.95;;;11.10;99.90;;;;;;4962572;28;20034;-76
2023/03/22 09:49:15;;;;;;;18.77;2.40;;;11.10;99.90;;;;;;4965127;28;20180;-75
2023/03/22 09:51:44;;;;;;;13.40;1.77;;;11.10;99.90;;;;;;4966069;28;20027;-74
2023/03/22 09:54:14;;;;;;;22.35;2.05;;;11.20;99.90;;;;;;4949724;28;20435;-75
2023/03/22 09:56:41;;;;;;;15.00;1.93;;;11.20;99.90;;;;;;4962930;28;20080;-74
2023/03/22 09:59:42;;;;;;;11.85;2.05;;;11.20;99.90;;;;;;4960628;28;20478;-74
2023/03/22 10:02:29;;;;;;;10.60;1.70;;;11.20;99.90;;;;;;4966298;28;20203;-74
2023/03/22 10:05:17;;;;;;;15.07;2.05;;;11.30;99.90;;;;;;4965337;28;20066;-75
2023/03/22 10:08:06;;;;;;;14.77;1.80;;;11.40;99.90;;;;;;4957159;28;20426;-74
2023/03/22 10:10:33;;;;;;;12.15;1.48;;;11.50;99.90;;;;;;4966466;28;20728;-74
2023/03/22 10:13:18;;;;;;;7.45;1.33;;;11.60;99.90;;;;;;4945904;28;20402;-74
2023/03/22 10:15:51;;;;;;;11.90;1.40;;;11.70;99.90;;;;;;4969511;28;20102;-74
2023/03/22 10:18:29;;;;;;;5.03;0.82;;;11.70;99.90;;;;;;4948334;28;20084;-74
2023/03/22 10:21:07;;;;;;;15.80;1.60;;;11.70;99.90;;;;;;4969849;28;20502;-74
2023/03/22 10:23:42;;;;;;;8.32;1.30;;;11.60;99.90;;;;;;4966595;28;20137;-74
2023/03/22 10:26:30;;;;;;;17.77;1.70;;;11.60;99.90;;;;;;4962589;28;20109;-74
2023/03/22 10:29:02;;;;;;;11.25;1.70;;;11.60;99.90;;;;;;4973680;28;20074;-74
2023/03/22 10:31:29;;;;;;;13.35;1.40;;;11.60;99.90;;;;;;4972931;28;20513;-74
2023/03/22 10:33:59;;;;;;;11.80;1.55;;;11.60;99.90;;;;;;4973041;28;20026;-75
2023/03/22 10:36:33;;;;;;;6.10;1.13;;;11.60;99.90;;;;;;4956564;28;20037;-74
2023/03/22 10:39:33;;;;;;;16.42;1.48;;;11.60;99.90;;;;;;4973307;28;20045;-74
2023/03/22 10:42:06;;;;;;;8.77;1.63;;;11.60;99.90;;;;;;4960313;28;20136;-75
2023/03/22 10:44:39;;;;;;;14.55;2.20;;;11.50;99.90;;;;;;4972504;28;20123;-75
2023/03/22 10:47:06;;;;;;;11.82;2.47;;;11.50;99.90;;;;;;4975227;28;20030;-74
2023/03/22 10:49:38;;;;;;;14.73;2.15;;;11.50;99.90;;;;;;4969737;28;20026;-75
2023/03/22 10:52:08;;;;;;;;;;;11.50;99.90;;;;;;4956724;28;20026;-74
2023/03/22 10:54:35;;;;;;;13.25;1.70;;;11.50;99.90;;;;;;4965839;28;19945;-75
2023/03/22 10:57:01;;;;;;;12.52;2.20;;;11.60;99.90;;;;;;4958471;28;20034;-74
2023/03/22 10:59:46;;;;;;;8.88;1.45;;;11.70;99.90;;;;;;4974909;28;22066;-74
2023/03/22 11:02:25;;;;;;;14.27;2.33;;;11.60;99.90;;;;;;4973334;28;20793;-74
2023/03/22 11:04:54;;;;;;;13.52;1.73;;;11.70;99.90;;;;;;4980406;28;20100;-75
2023/03/22 11:07:35;;;;;;;8.73;1.35;;;11.70;99.90;;;;;;4976965;28;20026;-73
2023/03/22 11:10:07;;;;;;;;;;;11.70;99.90;;;;;;4975561;28;20084;-75
2023/03/22 11:12:35;;;;;;;11.93;1.48;;;11.60;99.90;;;;;;4977105;28;19918;-75
2023/03/22 11:15:01;;;;;;;5.72;1.27;;;11.70;99.90;;;;;;4975856;28;20122;-73
2023/03/22 11:17:27;;;;;;;11.80;1.45;;;11.60;99.90;;;;;;4977662;28;20046;-74
2023/03/22 11:19:59;;;;;;;7.47;1.63;;;11.50;99.90;;;;;;4962843;28;20026;-73
2023/03/22 11:22:38;;;;;;;9.07;1.25;;;11.70;99.90;;;;;;4978827;28;20774;-74
2023/03/22 11:25:28;;;;;;;6.00;1.38;;;11.80;99.90;;;;;;4975640;28;20053;-73
2023/03/22 11:28:27;;;;;;;5.65;1.10;;;11.80;99.90;;;;;;4973353;28;20057;-73
2023/03/22 11:31:00;;;;;;;6.65;0.75;;;11.90;99.90;;;;;;4970455;28;20046;-74
2023/03/22 11:33:26;;;;;;;4.68;0.90;;;12.00;99.90;;;;;;4958439;28;20035;-74
2023/03/22 11:35:57;;;;;;;1.75;0.55;;;12.00;99.90;;;;;;4969166;28;20039;-73
2023/03/22 11:38:28;;;;;;;3.78;0.55;;;12.00;99.90;;;;;;4972721;28;20030;-73
2023/03/22 11:41:19;;;;;;;5.60;0.73;;;12.00;99.90;;;;;;4978580;28;20108;-74
2023/03/22 11:44:11;;;;;;;3.17;0.70;;;12.10;99.90;;;;;;4982996;28;20494;-74
2023/03/22 11:46:38;;;;;;;2.80;0.70;;;12.00;99.90;;;;;;4959673;28;20038;-74
2023/03/22 11:49:13;;;;;;;3.40;0.60;;;12.00;99.90;;;;;;4963453;28;20045;-76
2023/03/22 11:51:39;;;;;;;3.03;0.93;;;11.90;99.90;;;;;;4963311;28;20114;-75
2023/03/22 11:54:26;;;;;;;4.03;0.93;;;11.90;99.90;;;;;;4963622;28;20490;-75
2023/03/22 11:56:56;;;;;;;1.67;0.60;;;12.10;99.90;;;;;;4963286;28;20465;-75
2023/03/22 11:59:24;;;;;;;2.10;0.50;;;12.20;99.90;;;;;;4969418;28;20026;-74
2023/03/22 12:01:53;;;;;;;2.03;0.47;;;12.30;99.90;;;;;;4980980;28;20224;-74
2023/03/22 12:04:25;;;;;;;0.80;0.40;;;12.40;99.90;;;;;;4982467;28;20034;-74
2023/03/22 12:06:55;;;;;;;4.35;0.70;;;12.40;99.90;;;;;;4964389;28;20077;-74
2023/03/22 12:09:53;;;;;;;3.25;0.60;;;12.40;99.90;;;;;;4982320;28;20034;-74
2023/03/22 12:12:23;;;;;;;4.30;0.90;;;12.30;99.90;;;;;;4955695;28;20042;-74
2023/03/22 12:15:15;;;;;;;5.43;1.52;;;12.30;99.90;;;;;;4948962;28;20058;-74
2023/03/22 12:17:59;;;;;;;5.38;1.20;;;12.30;99.90;;;;;;4961788;28;20034;-74
2023/03/22 12:20:44;;;;;;;5.93;1.10;;;12.30;99.90;;;;;;4982706;28;20049;-74
2023/03/22 12:23:18;;;;;;;6.35;1.35;;;12.60;99.90;;;;;;4978906;28;20316;-75
2023/03/22 12:25:50;;;;;;;4.00;1.05;;;12.50;99.90;;;;;;4963241;28;20034;-74
2023/03/22 12:28:22;;;;;;;10.05;1.70;;;12.50;99.90;;;;;;4962531;28;20086;-74
2023/03/22 12:30:51;;;;;;;7.43;1.67;;;12.60;99.90;;;;;;4962816;28;20054;-75
2023/03/22 12:33:30;;;;;;;10.38;1.75;;;12.90;99.90;;;;;;4958064;28;20090;-75
2023/03/22 12:36:01;;;;;;;5.82;1.50;;;12.90;99.90;;;;;;4968743;28;20517;-74
2023/03/22 12:38:29;;;;;;;;;;;12.80;99.90;;;;;;4982174;28;20046;-75
2023/03/22 12:41:00;;;;;;;9.60;2.35;;;12.80;99.90;;;;;;4964187;28;19910;-75
2023/03/22 12:44:18;;;;;;;8.77;1.77;;;13.10;99.90;;;;;;4982652;28;20914;-75
2023/03/22 12:46:49;;;;;;;6.57;1.48;;;13.20;99.90;;;;;;4936125;28;20059;-75
2023/03/22 12:49:47;;;;;;;5.63;1.52;;;13.10;99.90;;;;;;4948480;28;20050;-74
2023/03/22 12:52:19;;;;;;;6.22;1.42;;;13.00;99.90;;;;;;4974449;28;20090;-75
2023/03/22 12:54:47;;;;;;;4.30;1.10;;;12.80;99.90;;;;;;4946202;28;20628;-75
2023/03/22 12:57:15;;;;;;;7.50;1.50;;;12.90;99.90;;;;;;4962048;28;20033;-75
2023/03/22 12:59:44;;;;;;;7.45;1.80;;;12.90;99.90;;;;;;4979184;28;20054;-75